sensor_id;sensor_type;location;lat;lon;timestamp;P1;durP1;ratioP1;P2;durP2;ratioP2
74912;SDS011;63878;55.624;37.304;2023-03-19T00:06:25;3.83;;;1.98;;
74912;SDS011;63878;55.624;37.304;2023-03-19T00:16:25;4.18;;;1.98;;
74912;SDS011;63878;55.624;37.304;2023-03-19T00:26:32;3.13;;;1.87;;
74912;SDS011;63878;55.624;37.304;2023-03-19T00:36:35;3.38;;;1.60;;
74912;SDS011;63878;55.624;37.304;2023-03-19T00:46:36;4.40;;;2.20;;
74912;SDS011;63878;55.624;37.304;2023-03-19T00:56:36;6.25;;;2.88;;
74912;SDS011;63878;55.624;37.304;2023-03-19T01:06:37;3.63;;;1.70;;
74912;SDS011;63878;55.624;37.304;2023-03-19T01:16:37;4.30;;;2.40;;
74912;SDS011;63878;55.624;37.304;2023-03-19T01:26:38;4.97;;;2.58;;
74912;SDS011;63878;55.624;37.304;2023-03-19T01:36:38;4.53;;;2.20;;
74912;SDS011;63878;55.624;37.304;2023-03-19T01:46:39;3.87;;;2.23;;
74912;SDS011;63878;55.624;37.304;2023-03-19T01:56:40;3.97;;;2.15;;
74912;SDS011;63878;55.624;37.304;2023-03-19T02:06:44;5.63;;;2.35;;
74912;SDS011;63878;55.624;37.304;2023-03-19T02:16:44;3.85;;;1.92;;
74912;SDS011;63878;55.624;37.304;2023-03-19T02:36:48;3.97;;;2.15;;
74912;SDS011;63878;55.624;37.304;2023-03-19T02:46:53;3.05;;;1.80;;
74912;SDS011;63878;55.624;37.304;2023-03-19T03:06:53;3.13;;;1.60;;
74912;SDS011;63878;55.624;37.304;2023-03-19T03:16:54;2.22;;;1.65;;
74912;SDS011;63878;55.624;37.304;2023-03-19T03:26:54;3.70;;;1.60;;
74912;SDS011;63878;55.624;37.304;2023-03-19T03:36:55;2.05;;;1.67;;
74912;SDS011;63878;55.624;37.304;2023-03-19T03:46:56;4.50;;;2.00;;
74912;SDS011;63878;55.624;37.304;2023-03-19T03:56:56;3.10;;;1.50;;
74912;SDS011;63878;55.624;37.304;2023-03-19T04:16:57;3.65;;;2.00;;
74912;SDS011;63878;55.624;37.304;2023-03-19T04:36:58;4.18;;;2.15;;
74912;SDS011;63878;55.624;37.304;2023-03-19T04:46:58;4.03;;;2.05;;
74912;SDS011;63878;55.624;37.304;2023-03-19T04:56:59;3.50;;;2.10;;
74912;SDS011;63878;55.624;37.304;2023-03-19T05:06:59;4.13;;;2.33;;
74912;SDS011;63878;55.624;37.304;2023-03-19T05:17:00;8.20;;;3.90;;
74912;SDS011;63878;55.624;37.304;2023-03-19T05:27:00;3.50;;;2.40;;
74912;SDS011;63878;55.624;37.304;2023-03-19T05:37:01;5.65;;;3.03;;
74912;SDS011;63878;55.624;37.304;2023-03-19T05:47:02;5.15;;;2.45;;
74912;SDS011;63878;55.624;37.304;2023-03-19T05:57:02;4.33;;;2.30;;
74912;SDS011;63878;55.624;37.304;2023-03-19T06:07:03;5.80;;;2.90;;
74912;SDS011;63878;55.624;37.304;2023-03-19T06:17:04;3.00;;;2.40;;
74912;SDS011;63878;55.624;37.304;2023-03-19T06:27:05;6.28;;;2.65;;
74912;SDS011;63878;55.624;37.304;2023-03-19T06:37:06;4.03;;;2.28;;
74912;SDS011;63878;55.624;37.304;2023-03-19T06:47:07;5.27;;;2.30;;
74912;SDS011;63878;55.624;37.304;2023-03-19T06:57:08;4.25;;;2.90;;
74912;SDS011;63878;55.624;37.304;2023-03-19T07:07:08;6.90;;;2.65;;
74912;SDS011;63878;55.624;37.304;2023-03-19T07:17:09;5.05;;;3.08;;
74912;SDS011;63878;55.624;37.304;2023-03-19T07:27:10;5.72;;;2.85;;
74912;SDS011;63878;55.624;37.304;2023-03-19T07:37:10;5.50;;;2.60;;
74912;SDS011;63878;55.624;37.304;2023-03-19T07:47:11;4.93;;;2.83;;
74912;SDS011;63878;55.624;37.304;2023-03-19T07:57:12;6.43;;;3.05;;
74912;SDS011;63878;55.624;37.304;2023-03-19T08:07:12;6.60;;;2.35;;
74912;SDS011;63878;55.624;37.304;2023-03-19T08:17:14;3.50;;;2.22;;
74912;SDS011;63878;55.624;37.304;2023-03-19T08:27:15;5.05;;;2.88;;
74912;SDS011;63878;55.624;37.304;2023-03-19T08:37:15;4.57;;;2.80;;
74912;SDS011;63878;55.624;37.304;2023-03-19T08:47:16;4.93;;;2.30;;
74912;SDS011;63878;55.624;37.304;2023-03-19T08:57:16;6.13;;;3.00;;
74912;SDS011;63878;55.624;37.304;2023-03-19T09:07:17;4.57;;;2.83;;
74912;SDS011;63878;55.624;37.304;2023-03-19T09:17:18;6.30;;;3.42;;
74912;SDS011;63878;55.624;37.304;2023-03-19T09:27:18;5.47;;;3.50;;
74912;SDS011;63878;55.624;37.304;2023-03-19T09:37:19;4.90;;;3.00;;
74912;SDS011;63878;55.624;37.304;2023-03-19T09:47:30;4.20;;;2.43;;
74912;SDS011;63878;55.624;37.304;2023-03-19T09:57:37;4.50;;;2.45;;
74912;SDS011;63878;55.624;37.304;2023-03-19T10:18:10;5.85;;;2.80;;
74912;SDS011;63878;55.624;37.304;2023-03-19T10:28:16;6.15;;;3.17;;
74912;SDS011;63878;55.624;37.304;2023-03-19T10:38:21;7.32;;;3.75;;
74912;SDS011;63878;55.624;37.304;2023-03-19T10:48:24;4.53;;;2.67;;
74912;SDS011;63878;55.624;37.304;2023-03-19T10:58:26;4.32;;;1.88;;
74912;SDS011;63878;55.624;37.304;2023-03-19T11:08:27;6.15;;;4.03;;
74912;SDS011;63878;55.624;37.304;2023-03-19T11:18:30;7.55;;;3.95;;
74912;SDS011;63878;55.624;37.304;2023-03-19T11:28:40;2.63;;;1.23;;
74912;SDS011;63878;55.624;37.304;2023-03-19T11:38:54;2.90;;;1.65;;
74912;SDS011;63878;55.624;37.304;2023-03-19T12:09:24;3.05;;;2.10;;
74912;SDS011;63878;55.624;37.304;2023-03-19T12:19:44;5.93;;;3.50;;
74912;SDS011;63878;55.624;37.304;2023-03-19T12:50:58;6.38;;;3.50;;
74912;SDS011;63878;55.624;37.304;2023-03-19T13:01:14;5.30;;;2.58;;
74912;SDS011;63878;55.624;37.304;2023-03-19T13:11:26;6.53;;;3.50;;
74912;SDS011;63878;55.624;37.304;2023-03-19T13:21:31;9.10;;;4.25;;
74912;SDS011;63878;55.624;37.304;2023-03-19T13:31:35;7.32;;;3.85;;
74912;SDS011;63878;55.624;37.304;2023-03-19T13:51:37;5.20;;;3.15;;
74912;SDS011;63878;55.624;37.304;2023-03-19T14:01:38;4.10;;;2.57;;
74912;SDS011;63878;55.624;37.304;2023-03-19T14:11:41;7.32;;;2.90;;
74912;SDS011;63878;55.624;37.304;2023-03-19T14:21:44;3.83;;;2.42;;
74912;SDS011;63878;55.624;37.304;2023-03-19T14:32:06;5.15;;;3.25;;
74912;SDS011;63878;55.624;37.304;2023-03-19T14:43:16;5.95;;;3.35;;
74912;SDS011;63878;55.624;37.304;2023-03-19T14:52:50;6.55;;;3.10;;
74912;SDS011;63878;55.624;37.304;2023-03-19T15:02:50;7.75;;;3.33;;
74912;SDS011;63878;55.624;37.304;2023-03-19T15:23:17;5.50;;;3.33;;
74912;SDS011;63878;55.624;37.304;2023-03-19T15:33:20;5.10;;;2.55;;
74912;SDS011;63878;55.624;37.304;2023-03-19T15:43:23;5.70;;;3.03;;
74912;SDS011;63878;55.624;37.304;2023-03-19T15:53:25;14.82;;;5.20;;
74912;SDS011;63878;55.624;37.304;2023-03-19T16:03:35;12.98;;;5.53;;
74912;SDS011;63878;55.624;37.304;2023-03-19T16:13:38;7.65;;;3.13;;
74912;SDS011;63878;55.624;37.304;2023-03-19T16:23:41;6.03;;;3.15;;
74912;SDS011;63878;55.624;37.304;2023-03-19T16:33:45;7.13;;;3.45;;
74912;SDS011;63878;55.624;37.304;2023-03-19T16:43:46;4.80;;;3.03;;
74912;SDS011;63878;55.624;37.304;2023-03-19T16:53:47;6.55;;;3.78;;
74912;SDS011;63878;55.624;37.304;2023-03-19T17:03:49;7.82;;;3.53;;
74912;SDS011;63878;55.624;37.304;2023-03-19T17:13:50;9.13;;;4.97;;
74912;SDS011;63878;55.624;37.304;2023-03-19T17:23:52;8.25;;;4.13;;
74912;SDS011;63878;55.624;37.304;2023-03-19T17:33:56;7.72;;;4.60;;
74912;SDS011;63878;55.624;37.304;2023-03-19T17:44:00;6.55;;;3.00;;
74912;SDS011;63878;55.624;37.304;2023-03-19T17:54:00;7.37;;;3.33;;
74912;SDS011;63878;55.624;37.304;2023-03-19T18:04:01;6.70;;;3.55;;
74912;SDS011;63878;55.624;37.304;2023-03-19T18:14:02;8.80;;;4.32;;
74912;SDS011;63878;55.624;37.304;2023-03-19T18:24:02;9.70;;;4.53;;
74912;SDS011;63878;55.624;37.304;2023-03-19T18:34:04;10.13;;;5.20;;
74912;SDS011;63878;55.624;37.304;2023-03-19T18:44:07;12.35;;;6.53;;
74912;SDS011;63878;55.624;37.304;2023-03-19T18:54:09;14.43;;;6.57;;
74912;SDS011;63878;55.624;37.304;2023-03-19T19:04:13;13.48;;;6.40;;
74912;SDS011;63878;55.624;37.304;2023-03-19T19:14:17;11.55;;;6.05;;
74912;SDS011;63878;55.624;37.304;2023-03-19T19:34:21;12.35;;;5.93;;
74912;SDS011;63878;55.624;37.304;2023-03-19T19:44:22;13.98;;;6.65;;
74912;SDS011;63878;55.624;37.304;2023-03-19T19:54:22;12.25;;;6.80;;
74912;SDS011;63878;55.624;37.304;2023-03-19T20:04:23;11.00;;;6.22;;
74912;SDS011;63878;55.624;37.304;2023-03-19T20:14:23;14.95;;;6.53;;
74912;SDS011;63878;55.624;37.304;2023-03-19T20:24:24;11.70;;;5.63;;
74912;SDS011;63878;55.624;37.304;2023-03-19T20:34:24;12.93;;;5.75;;
74912;SDS011;63878;55.624;37.304;2023-03-19T20:44:25;12.43;;;6.63;;
74912;SDS011;63878;55.624;37.304;2023-03-19T20:54:26;11.80;;;6.20;;
74912;SDS011;63878;55.624;37.304;2023-03-19T21:04:26;15.05;;;5.80;;
74912;SDS011;63878;55.624;37.304;2023-03-19T21:14:27;10.57;;;5.50;;
74912;SDS011;63878;55.624;37.304;2023-03-19T21:24:27;9.73;;;5.97;;
74912;SDS011;63878;55.624;37.304;2023-03-19T21:34:28;8.43;;;5.72;;
74912;SDS011;63878;55.624;37.304;2023-03-19T21:44:29;11.80;;;6.27;;
74912;SDS011;63878;55.624;37.304;2023-03-19T21:54:29;9.95;;;6.05;;
74912;SDS011;63878;55.624;37.304;2023-03-19T22:04:30;12.10;;;6.30;;
74912;SDS011;63878;55.624;37.304;2023-03-19T22:14:31;13.40;;;5.83;;
74912;SDS011;63878;55.624;37.304;2023-03-19T22:24:31;10.57;;;6.03;;
74912;SDS011;63878;55.624;37.304;2023-03-19T22:34:32;10.85;;;5.13;;
74912;SDS011;63878;55.624;37.304;2023-03-19T22:44:32;11.70;;;5.97;;
74912;SDS011;63878;55.624;37.304;2023-03-19T22:54:33;11.90;;;5.70;;
74912;SDS011;63878;55.624;37.304;2023-03-19T23:04:33;8.13;;;4.15;;
74912;SDS011;63878;55.624;37.304;2023-03-19T23:14:35;11.27;;;6.20;;
74912;SDS011;63878;55.624;37.304;2023-03-19T23:24:35;11.83;;;5.20;;
74912;SDS011;63878;55.624;37.304;2023-03-19T23:34:36;10.65;;;5.40;;
74912;SDS011;63878;55.624;37.304;2023-03-19T23:54:36;10.10;;;5.88;;
